createdAt,value
2022-12-07T00:01:26.021Z,4.80
2022-12-07T00:03:55.748Z,4.80
2022-12-07T00:06:23.090Z,5.00
2022-12-07T00:08:50.439Z,5.00
2022-12-07T00:11:20.840Z,5.00
2022-12-07T00:13:52.752Z,5.00
2022-12-07T00:16:23.034Z,5.00
2022-12-07T00:18:50.500Z,5.00
2022-12-07T00:21:21.136Z,5.00
2022-12-07T00:23:50.365Z,5.00
2022-12-07T00:26:24.151Z,5.00
2022-12-07T00:28:53.573Z,4.90
2022-12-07T00:31:22.765Z,4.90
2022-12-07T00:33:50.421Z,4.90
2022-12-07T00:36:26.258Z,4.70
2022-12-07T00:38:55.442Z,4.60
2022-12-07T00:41:25.897Z,4.60
2022-12-07T00:43:53.843Z,4.40
2022-12-07T00:46:22.296Z,4.40
2022-12-07T00:48:50.960Z,4.20
2022-12-07T00:51:20.833Z,4.10
2022-12-07T00:53:48.428Z,3.90
2022-12-07T00:56:24.262Z,3.90
2022-12-07T00:58:59.993Z,4.00
2022-12-07T01:01:30.641Z,4.00
2022-12-07T01:03:58.075Z,4.10
2022-12-07T01:06:26.229Z,4.20
2022-12-07T01:08:54.466Z,4.40
2022-12-07T01:11:25.067Z,4.40
2022-12-07T01:13:53.852Z,4.50
2022-12-07T01:16:22.960Z,4.50
2022-12-07T01:18:53.173Z,4.50
2022-12-07T01:21:29.216Z,4.50
2022-12-07T01:23:58.851Z,4.50
2022-12-07T01:26:27.272Z,4.40
2022-12-07T01:28:56.105Z,4.30
2022-12-07T01:31:25.625Z,4.20
2022-12-07T01:33:58.665Z,4.20
2022-12-07T01:36:27.347Z,4.10
2022-12-07T01:39:01.080Z,4.10
2022-12-07T01:41:31.573Z,4.00
2022-12-07T01:44:17.610Z,4.00
2022-12-07T01:46:52.359Z,3.90
2022-12-07T01:49:19.668Z,3.90
2022-12-07T01:51:48.751Z,4.00
2022-12-07T01:54:17.845Z,3.90
2022-12-07T01:56:51.132Z,3.90
2022-12-07T01:59:20.808Z,3.90
2022-12-07T02:01:48.141Z,3.90
2022-12-07T02:04:16.082Z,3.90
2022-12-07T02:06:45.501Z,3.80
2022-12-07T02:09:13.249Z,3.80
2022-12-07T02:11:41.867Z,3.60
2022-12-07T02:14:09.419Z,3.50
2022-12-07T02:16:46.122Z,3.30
2022-12-07T02:19:44.003Z,3.30
2022-12-07T02:22:33.233Z,3.30
2022-12-07T02:25:26.879Z,3.40
2022-12-07T02:28:25.337Z,3.50
2022-12-07T02:30:56.259Z,3.70
2022-12-07T02:33:36.478Z,3.70
2022-12-07T02:36:23.137Z,3.70
2022-12-07T02:38:56.796Z,3.70
2022-12-07T02:41:32.949Z,3.60
2022-12-07T02:44:04.418Z,3.60
2022-12-07T02:46:39.214Z,3.60
2022-12-07T02:49:09.384Z,3.60
2022-12-07T02:51:41.860Z,3.60
2022-12-07T02:54:18.820Z,3.60
2022-12-07T02:56:55.174Z,3.50
2022-12-07T02:59:37.959Z,3.40
2022-12-07T03:02:34.218Z,3.40
2022-12-07T03:05:23.047Z,3.30
2022-12-07T03:08:00.963Z,3.20
2022-12-07T03:11:00.136Z,3.10
2022-12-07T03:13:58.128Z,3.20
2022-12-07T03:16:42.578Z,3.40
2022-12-07T03:19:18.042Z,3.40
2022-12-07T03:21:54.543Z,3.50
2022-12-07T03:24:25.419Z,3.70
2022-12-07T03:27:15.785Z,3.50
2022-12-07T03:29:48.652Z,3.30
2022-12-07T03:32:27.395Z,3.10
2022-12-07T03:35:04.899Z,3.00
2022-12-07T03:37:37.608Z,2.80
2022-12-07T03:40:16.699Z,2.70
2022-12-07T03:42:44.489Z,2.50
2022-12-07T03:45:12.943Z,2.50
2022-12-07T03:47:59.863Z,2.30
2022-12-07T03:50:44.067Z,2.30
2022-12-07T03:53:40.579Z,2.30
2022-12-07T03:56:09.609Z,2.60
2022-12-07T03:58:38.206Z,2.70
2022-12-07T04:01:05.512Z,2.70
2022-12-07T04:03:32.790Z,2.90
2022-12-07T04:06:00.500Z,3.00
2022-12-07T04:08:27.739Z,3.20
2022-12-07T04:10:54.982Z,3.30
2022-12-07T04:13:22.314Z,3.50
2022-12-07T04:15:49.616Z,3.50
2022-12-07T04:18:16.917Z,3.50
2022-12-07T04:20:44.211Z,3.40
2022-12-07T04:23:11.532Z,3.40
2022-12-07T04:25:38.840Z,3.40
2022-12-07T04:28:06.170Z,3.50
2022-12-07T04:30:33.420Z,3.60
2022-12-07T04:33:00.851Z,3.60
2022-12-07T04:35:28.147Z,3.70
2022-12-07T04:37:55.450Z,3.80
2022-12-07T04:40:22.724Z,3.70
2022-12-07T04:42:49.990Z,3.80
2022-12-07T04:45:17.356Z,3.60
2022-12-07T04:47:44.687Z,3.40
2022-12-07T04:50:12.052Z,3.30
2022-12-07T04:52:39.345Z,3.20
2022-12-07T04:55:06.909Z,3.20
2022-12-07T04:57:34.209Z,3.20
2022-12-07T05:00:01.824Z,3.30
2022-12-07T05:02:29.486Z,3.40
2022-12-07T05:04:56.907Z,3.50
2022-12-07T05:07:24.277Z,3.60
2022-12-07T05:09:51.556Z,3.60
2022-12-07T05:12:18.863Z,3.60
2022-12-07T05:14:46.183Z,3.60
2022-12-07T05:17:13.525Z,3.70
2022-12-07T05:19:40.757Z,3.70
2022-12-07T05:22:08.010Z,3.70
2022-12-07T05:24:35.368Z,3.80
2022-12-07T05:27:02.889Z,3.80
2022-12-07T05:29:33.298Z,3.80
2022-12-07T05:32:00.738Z,3.80
2022-12-07T05:34:28.020Z,3.80
2022-12-07T05:36:55.282Z,3.80
2022-12-07T05:39:22.604Z,3.80
2022-12-07T05:42:08.281Z,3.80
2022-12-07T05:44:35.639Z,3.80
2022-12-07T05:47:03.113Z,3.90
2022-12-07T05:49:30.466Z,3.90
2022-12-07T05:51:57.842Z,3.90
2022-12-07T05:54:25.190Z,3.90
2022-12-07T05:56:52.562Z,3.90
2022-12-07T05:59:26.672Z,3.90
2022-12-07T06:02:06.099Z,4.00
2022-12-07T06:04:37.903Z,4.00
2022-12-07T06:07:06.771Z,3.90
2022-12-07T06:09:35.195Z,3.90
2022-12-07T06:12:21.453Z,3.90
2022-12-07T06:14:48.846Z,3.90
2022-12-07T06:17:16.458Z,3.90
2022-12-07T06:19:43.968Z,3.90
2022-12-07T06:22:12.537Z,3.90
2022-12-07T06:24:40.805Z,4.00
2022-12-07T06:27:08.452Z,3.90
2022-12-07T06:29:35.724Z,3.90
2022-12-07T06:37:05.873Z,3.90
2022-12-07T06:39:32.690Z,3.90
2022-12-07T06:41:59.463Z,3.60
2022-12-07T06:44:26.264Z,3.40
2022-12-07T06:47:06.643Z,3.20
2022-12-07T06:49:40.227Z,3.20
2022-12-07T06:52:06.815Z,3.20
2022-12-07T06:54:33.403Z,3.20
2022-12-07T07:02:04.114Z,3.20
2022-12-07T07:04:30.930Z,3.20
2022-12-07T07:07:00.216Z,3.20
2022-12-07T07:09:27.445Z,3.20
2022-12-07T07:14:03.340Z,3.10
2022-12-07T07:16:32.204Z,2.70
2022-12-07T07:18:59.541Z,2.50
2022-12-07T07:21:27.017Z,2.40
2022-12-07T07:23:54.266Z,2.30
2022-12-07T07:26:23.429Z,2.20
2022-12-07T07:28:50.990Z,2.10
2022-12-07T07:31:18.223Z,2.10
2022-12-07T07:33:47.724Z,1.90
2022-12-07T07:36:15.056Z,1.90
2022-12-07T07:38:42.415Z,1.90
2022-12-07T07:41:09.630Z,1.90
2022-12-07T07:43:37.005Z,1.80
2022-12-07T07:46:04.410Z,1.80
2022-12-07T07:48:31.999Z,1.90
2022-12-07T07:50:59.360Z,1.90
2022-12-07T07:53:27.074Z,1.90
2022-12-07T07:55:55.439Z,2.20
2022-12-07T07:58:23.011Z,2.50
2022-12-07T08:00:50.570Z,2.90
2022-12-07T08:03:18.041Z,3.00
2022-12-07T08:05:45.573Z,3.10
2022-12-07T08:08:13.218Z,3.30
2022-12-07T08:10:40.732Z,3.50
2022-12-07T08:13:16.901Z,3.80
2022-12-07T08:15:48.379Z,3.90
2022-12-07T08:18:16.751Z,3.80
2022-12-07T08:20:44.107Z,3.60
2022-12-07T08:23:12.313Z,3.60
2022-12-07T08:25:39.832Z,3.60
2022-12-07T08:28:07.378Z,3.70
2022-12-07T08:30:34.736Z,3.70
2022-12-07T08:33:02.221Z,3.70
2022-12-07T08:35:29.509Z,3.60
2022-12-07T08:37:58.789Z,3.60
2022-12-07T08:40:26.163Z,3.60
2022-12-07T08:42:53.719Z,3.70
2022-12-07T08:45:27.119Z,3.80
2022-12-07T08:48:04.890Z,4.00
2022-12-07T08:50:33.673Z,4.40
2022-12-07T08:53:01.841Z,4.80
2022-12-07T08:55:30.125Z,5.60
2022-12-07T08:57:59.670Z,5.60
2022-12-07T09:00:27.571Z,5.30
2022-12-07T09:02:55.617Z,5.00
2022-12-07T09:05:24.150Z,4.60
2022-12-07T09:07:55.313Z,4.30
2022-12-07T09:10:22.694Z,4.20
2022-12-07T09:12:50.337Z,4.40
2022-12-07T09:15:17.739Z,5.10
2022-12-07T09:17:45.055Z,6.80
2022-12-07T09:20:12.732Z,8.50
2022-12-07T09:22:40.018Z,10.00
2022-12-07T09:25:07.618Z,10.70
2022-12-07T09:27:34.999Z,11.10
2022-12-07T09:30:02.858Z,11.70
2022-12-07T09:32:30.525Z,11.00
2022-12-07T09:34:57.886Z,9.00
2022-12-07T09:37:25.409Z,8.00
2022-12-07T09:39:52.779Z,9.00
2022-12-07T09:42:36.861Z,10.20
2022-12-07T09:45:08.686Z,9.60
2022-12-07T09:47:36.049Z,9.00
2022-12-07T09:50:14.020Z,8.40
2022-12-07T09:52:42.667Z,7.70
2022-12-07T09:55:15.841Z,7.10
2022-12-07T09:57:44.130Z,6.40
2022-12-07T10:00:20.493Z,5.80
2022-12-07T10:03:02.586Z,5.60
2022-12-07T10:05:41.144Z,5.80
2022-12-07T10:08:13.664Z,5.90
2022-12-07T10:10:42.128Z,5.70
2022-12-07T10:13:12.123Z,5.60
2022-12-07T10:16:05.041Z,6.00
2022-12-07T10:18:39.680Z,8.20
2022-12-07T10:21:17.264Z,9.90
2022-12-07T10:24:03.843Z,9.20
2022-12-07T10:26:47.969Z,9.40
2022-12-07T10:29:30.685Z,10.00
2022-12-07T10:32:01.701Z,10.40
2022-12-07T10:34:30.706Z,9.90
2022-12-07T10:37:10.224Z,9.90
2022-12-07T10:39:53.868Z,10.20
2022-12-07T10:42:23.429Z,11.00
2022-12-07T10:45:08.019Z,11.80
2022-12-07T10:47:46.542Z,12.10
2022-12-07T10:50:35.724Z,11.60
2022-12-07T10:53:28.377Z,9.40
2022-12-07T10:56:17.584Z,8.30
2022-12-07T10:59:03.119Z,7.50
2022-12-07T11:01:34.074Z,7.20
2022-12-07T11:04:22.848Z,7.00
2022-12-07T11:07:19.428Z,6.90
2022-12-07T11:10:09.419Z,6.90
2022-12-07T11:12:48.275Z,6.90
2022-12-07T11:15:18.627Z,7.10
2022-12-07T11:18:04.110Z,7.30
2022-12-07T11:20:59.399Z,7.30
2022-12-07T11:23:57.593Z,7.40
2022-12-07T11:26:32.617Z,7.50
2022-12-07T11:29:19.467Z,7.50
2022-12-07T11:31:55.539Z,7.60
2022-12-07T11:34:46.485Z,7.50
2022-12-07T11:37:19.165Z,7.60
2022-12-07T11:39:53.754Z,7.60
2022-12-07T11:42:28.538Z,7.60
2022-12-07T11:45:15.279Z,7.70
2022-12-07T11:47:49.683Z,7.70
2022-12-07T11:50:33.767Z,7.90
2022-12-07T11:53:10.547Z,7.90
2022-12-07T11:55:58.186Z,7.90
2022-12-07T11:58:34.384Z,8.00
2022-12-07T12:01:26.188Z,7.90
2022-12-07T12:03:58.987Z,7.90
2022-12-07T12:06:26.286Z,7.90
2022-12-07T12:15:07.272Z,7.80
2022-12-07T12:17:52.423Z,7.70
2022-12-07T12:20:57.383Z,7.60
2022-12-07T12:24:00.523Z,7.40
2022-12-07T12:26:34.265Z,7.40
2022-12-07T12:29:27.614Z,7.40
2022-12-07T12:32:21.075Z,7.30
2022-12-07T12:34:50.695Z,7.20
2022-12-07T12:37:40.740Z,7.20
2022-12-07T12:40:16.702Z,7.30
2022-12-07T12:42:49.373Z,7.40
2022-12-07T12:45:26.949Z,7.60
2022-12-07T12:48:01.209Z,7.60
2022-12-07T12:50:36.577Z,7.60
2022-12-07T12:53:12.494Z,7.60
2022-12-07T12:55:42.872Z,7.70
2022-12-07T12:58:19.498Z,7.60
2022-12-07T13:01:28.449Z,7.60
2022-12-07T13:03:57.384Z,7.40
2022-12-07T13:06:27.616Z,7.30
2022-12-07T13:08:58.699Z,7.00
2022-12-07T13:11:42.189Z,6.90
2022-12-07T13:14:41.274Z,6.90
2022-12-07T13:17:12.787Z,6.90
2022-12-07T13:19:54.206Z,6.80
2022-12-07T13:22:41.658Z,6.80
2022-12-07T13:25:20.678Z,6.80
2022-12-07T13:27:58.208Z,6.90
2022-12-07T13:30:26.547Z,7.10
2022-12-07T13:32:55.920Z,7.20
2022-12-07T13:35:32.642Z,7.30
2022-12-07T13:38:03.000Z,7.40
2022-12-07T13:40:30.353Z,7.30
2022-12-07T13:43:06.082Z,7.30
2022-12-07T13:45:49.952Z,7.20
2022-12-07T13:48:35.848Z,7.20
2022-12-07T13:51:04.782Z,7.30
2022-12-07T13:53:32.232Z,7.40
2022-12-07T13:56:00.948Z,7.40
2022-12-07T13:58:32.285Z,7.50
2022-12-07T14:01:00.686Z,7.40
2022-12-07T14:03:31.289Z,7.40
2022-12-07T14:06:18.391Z,7.40
2022-12-07T14:08:46.071Z,7.40
2022-12-07T14:11:19.975Z,7.50
2022-12-07T14:13:58.209Z,7.50
2022-12-07T14:16:35.619Z,7.40
2022-12-07T14:19:07.070Z,7.50
2022-12-07T14:21:35.453Z,7.50
2022-12-07T14:24:21.224Z,7.50
2022-12-07T14:26:50.703Z,7.40
2022-12-07T14:29:26.994Z,7.30
2022-12-07T14:31:55.504Z,7.20
2022-12-07T14:34:24.672Z,7.00
2022-12-07T14:36:52.287Z,6.90
2022-12-07T14:39:19.605Z,6.80
2022-12-07T14:41:52.871Z,6.80
2022-12-07T14:44:24.945Z,6.80
2022-12-07T14:49:41.730Z,6.60
2022-12-07T14:55:23.205Z,6.60
2022-12-07T14:57:50.654Z,6.50
2022-12-07T15:00:19.626Z,6.30
2022-12-07T15:02:48.124Z,6.00
2022-12-07T15:05:16.497Z,5.80
2022-12-07T15:07:45.639Z,5.70
2022-12-07T15:10:33.650Z,5.80
2022-12-07T15:13:21.467Z,5.80
2022-12-07T15:15:51.305Z,5.70
2022-12-07T15:18:20.358Z,5.40
2022-12-07T15:20:47.782Z,5.20
2022-12-07T15:23:16.356Z,5.00
2022-12-07T15:25:45.621Z,4.80
2022-12-07T15:28:13.131Z,4.80
2022-12-07T15:30:43.626Z,4.70
2022-12-07T15:33:12.160Z,4.70
2022-12-07T15:35:43.834Z,4.70
2022-12-07T15:38:11.278Z,4.80
2022-12-07T15:40:38.622Z,4.90
2022-12-07T15:43:26.221Z,4.90
2022-12-07T15:45:53.664Z,4.90
2022-12-07T15:48:29.513Z,5.00
2022-12-07T15:51:08.267Z,5.00
2022-12-07T15:53:36.430Z,5.00
2022-12-07T15:56:08.205Z,5.00
2022-12-07T15:58:36.179Z,5.00
2022-12-07T16:01:11.971Z,5.00
2022-12-07T16:03:39.498Z,5.10
2022-12-07T16:06:07.380Z,5.10
2022-12-07T16:08:36.625Z,5.20
2022-12-07T16:11:08.111Z,5.10
2022-12-07T16:13:36.157Z,5.10
2022-12-07T16:16:09.428Z,5.10
2022-12-07T16:18:36.892Z,5.10
2022-12-07T16:21:05.031Z,5.20
2022-12-07T16:23:32.613Z,5.10
2022-12-07T16:26:11.707Z,5.20
2022-12-07T16:28:39.034Z,5.20
2022-12-07T16:31:15.648Z,5.10
2022-12-07T16:33:44.812Z,5.20
2022-12-07T16:36:14.353Z,5.20
2022-12-07T16:38:41.656Z,5.30
2022-12-07T16:41:09.868Z,5.20
2022-12-07T16:43:37.708Z,5.30
2022-12-07T16:46:05.814Z,5.30
2022-12-07T16:48:39.275Z,5.30
2022-12-07T16:51:09.519Z,5.20
2022-12-07T16:53:38.411Z,5.20
2022-12-07T16:56:10.650Z,5.20
2022-12-07T16:58:38.025Z,5.10
2022-12-07T17:01:18.255Z,5.20
2022-12-07T17:03:46.373Z,5.10
2022-12-07T17:06:17.004Z,5.00
2022-12-07T17:08:44.910Z,4.80
2022-12-07T17:11:18.210Z,4.70
2022-12-07T17:14:04.399Z,4.60
2022-12-07T17:16:32.222Z,4.50
2022-12-07T17:18:59.865Z,4.50
2022-12-07T17:21:27.170Z,4.50
2022-12-07T17:23:54.454Z,4.50
2022-12-07T17:26:24.584Z,4.60
2022-12-07T17:28:52.337Z,4.50
2022-12-07T17:31:21.173Z,4.50
2022-12-07T17:33:48.907Z,4.50
2022-12-07T17:36:22.749Z,4.50
2022-12-07T17:38:51.300Z,4.50
2022-12-07T17:41:56.819Z,4.50
2022-12-07T17:44:24.337Z,4.40
2022-12-07T17:46:58.849Z,4.40
2022-12-07T17:49:27.258Z,4.30
2022-12-07T17:52:14.151Z,4.30
2022-12-07T17:54:41.500Z,4.30
2022-12-07T17:57:09.813Z,4.20
2022-12-07T17:59:37.326Z,4.20
2022-12-07T18:02:04.743Z,4.20
2022-12-07T18:04:33.005Z,4.20
2022-12-07T18:07:00.325Z,4.10
2022-12-07T18:09:27.642Z,4.10
2022-12-07T18:11:54.993Z,4.10
2022-12-07T18:14:22.338Z,4.10
2022-12-07T18:16:50.007Z,4.10
2022-12-07T18:19:17.644Z,4.10
2022-12-07T18:21:45.464Z,4.10
2022-12-07T18:24:14.691Z,4.00
2022-12-07T18:26:42.956Z,4.10
2022-12-07T18:29:14.551Z,4.00
2022-12-07T18:31:42.295Z,4.00
2022-12-07T18:34:13.750Z,4.00
2022-12-07T18:36:42.742Z,4.00
2022-12-07T18:39:10.357Z,4.00
2022-12-07T18:41:39.142Z,4.00
2022-12-07T18:44:08.076Z,4.00
2022-12-07T18:46:36.255Z,4.00
2022-12-07T18:49:04.465Z,3.90
2022-12-07T18:51:32.609Z,3.90
2022-12-07T18:54:01.364Z,3.90
2022-12-07T18:56:28.991Z,4.00
2022-12-07T18:59:17.061Z,4.00
2022-12-07T19:01:49.617Z,4.00
2022-12-07T19:04:17.579Z,3.90
2022-12-07T19:06:47.272Z,3.90
2022-12-07T19:09:15.152Z,4.00
2022-12-07T19:11:51.887Z,3.90
2022-12-07T19:14:24.573Z,3.90
2022-12-07T19:16:54.513Z,4.00
2022-12-07T19:19:24.262Z,4.00
2022-12-07T19:21:51.709Z,4.00
2022-12-07T19:24:23.089Z,4.00
2022-12-07T19:26:51.591Z,4.00
2022-12-07T19:29:19.147Z,4.00
2022-12-07T19:31:46.780Z,4.00
2022-12-07T19:34:16.205Z,3.90
2022-12-07T19:36:44.358Z,3.90
2022-12-07T19:39:15.111Z,3.90
2022-12-07T19:41:46.615Z,4.00
2022-12-07T19:44:19.122Z,3.90
2022-12-07T19:46:50.080Z,3.90
2022-12-07T19:49:22.500Z,3.90
2022-12-07T19:51:55.943Z,3.90
2022-12-07T19:54:27.801Z,3.90
2022-12-07T19:56:56.024Z,3.90
2022-12-07T19:59:25.832Z,3.90
2022-12-07T20:01:53.791Z,3.80
2022-12-07T20:04:24.199Z,3.80
2022-12-07T20:06:54.644Z,3.80
2022-12-07T20:09:22.692Z,3.90
2022-12-07T20:12:09.156Z,3.80
2022-12-07T20:14:37.134Z,3.80
2022-12-07T20:17:04.725Z,3.80
2022-12-07T20:19:32.159Z,3.80
2022-12-07T20:21:59.497Z,3.70
2022-12-07T20:24:26.952Z,3.70
2022-12-07T20:26:54.876Z,3.70
2022-12-07T20:29:24.711Z,3.80
2022-12-07T20:31:53.125Z,3.80
2022-12-07T20:34:20.722Z,3.70
2022-12-07T20:36:48.238Z,3.70
2022-12-07T20:39:15.721Z,3.70
2022-12-07T20:42:01.523Z,3.70
2022-12-07T20:44:29.099Z,3.70
2022-12-07T20:46:56.509Z,3.60
2022-12-07T20:49:23.818Z,3.60
2022-12-07T20:51:51.451Z,3.60
2022-12-07T20:54:18.968Z,3.60
2022-12-07T20:56:46.258Z,3.60
2022-12-07T20:59:15.881Z,3.70
2022-12-07T21:01:44.018Z,3.70
2022-12-07T21:04:13.232Z,3.70
2022-12-07T21:06:41.035Z,3.60
2022-12-07T21:09:10.100Z,3.70
2022-12-07T21:11:37.746Z,3.80
2022-12-07T21:14:04.997Z,3.80
2022-12-07T21:16:32.611Z,3.80
2022-12-07T21:19:02.707Z,3.80
2022-12-07T21:21:31.772Z,3.80
2022-12-07T21:24:02.817Z,3.80
2022-12-07T21:26:35.613Z,3.80
2022-12-07T21:29:04.773Z,3.80
2022-12-07T21:31:32.674Z,3.80
2022-12-07T21:34:03.181Z,3.80
2022-12-07T21:36:30.561Z,3.90
2022-12-07T21:38:57.932Z,3.80
2022-12-07T21:41:29.814Z,3.80
2022-12-07T21:43:57.748Z,3.80
2022-12-07T21:46:32.842Z,3.80
2022-12-07T21:49:06.926Z,3.80
2022-12-07T21:51:34.870Z,3.80
2022-12-07T21:54:03.983Z,3.70
2022-12-07T21:56:34.730Z,3.80
2022-12-07T21:59:11.759Z,3.80
2022-12-07T22:01:40.825Z,3.70
2022-12-07T22:04:12.009Z,3.70
2022-12-07T22:06:39.567Z,3.80
2022-12-07T22:09:07.040Z,3.80
2022-12-07T22:11:35.056Z,3.70
2022-12-07T22:14:22.278Z,3.70
2022-12-07T22:16:50.596Z,3.80
2022-12-07T22:19:18.212Z,3.70
2022-12-07T22:21:45.468Z,3.80
2022-12-07T22:24:13.782Z,3.80
2022-12-07T22:26:42.651Z,3.80
2022-12-07T22:29:10.778Z,3.80
2022-12-07T22:31:38.715Z,3.80
2022-12-07T22:34:06.232Z,3.80
2022-12-07T22:36:33.596Z,3.80
2022-12-07T22:39:01.428Z,3.80
2022-12-07T22:41:31.098Z,3.80
2022-12-07T22:43:59.666Z,3.80
2022-12-07T22:46:27.935Z,3.80
2022-12-07T22:48:55.317Z,3.80
2022-12-07T22:51:31.095Z,3.80
2022-12-07T22:54:00.255Z,3.70
2022-12-07T22:56:29.266Z,3.70
2022-12-07T22:58:56.957Z,3.70
2022-12-07T23:01:24.388Z,3.70
2022-12-07T23:03:52.332Z,3.60
2022-12-07T23:06:27.445Z,3.70
2022-12-07T23:08:57.797Z,3.60
2022-12-07T23:11:47.025Z,3.60
2022-12-07T23:14:17.201Z,3.70
2022-12-07T23:16:44.907Z,3.70
2022-12-07T23:19:12.901Z,3.80
2022-12-07T23:21:40.728Z,3.70
2022-12-07T23:24:08.952Z,3.70
2022-12-07T23:26:36.207Z,3.70
2022-12-07T23:29:03.451Z,3.70
2022-12-07T23:31:30.815Z,3.70
2022-12-07T23:33:58.120Z,3.70
2022-12-07T23:36:27.248Z,3.70
2022-12-07T23:38:56.047Z,3.70
2022-12-07T23:41:26.110Z,3.60
2022-12-07T23:43:54.936Z,3.60
2022-12-07T23:46:25.284Z,3.50
2022-12-07T23:48:54.273Z,3.40
2022-12-07T23:51:22.396Z,3.40
2022-12-07T23:53:51.849Z,3.40
2022-12-07T23:56:25.275Z,3.30
2022-12-07T23:58:53.345Z,3.20
